Time;durP1;ratioP1;P1;durP2;ratioP2;P2;SDS_P1;SDS_P2;PMS_P1;PMS_P2;Temp;Humidity;BMP_temperature;BMP_pressure;BME280_temperature;BME280_humidity;BME280_pressure;Samples;Min_cycle;Max_cycle;Signal;HPM_P1;HPM_P2
2020/12/16 00:01:04;;;;;;;;;;;20.30;40.10;;;;;;491685;240;1040;-72
2020/12/16 00:03:05;;;;;;;;;;;20.30;40.10;;;;;;491603;240;1210;-71
2020/12/16 00:05:06;;;;;;;;;;;20.30;40.10;;;;;;491622;240;1104;-72
2020/12/16 00:07:08;;;;;;;;;;;20.40;40.30;;;;;;491629;240;1033;-71
2020/12/16 00:09:09;;;;;;;;;;;20.40;40.30;;;;;;491641;240;2188;-71
2020/12/16 00:11:10;;;;;;;;;;;20.40;40.30;;;;;;491552;240;980;-71
2020/12/16 00:13:12;;;;;;;;;;;20.50;40.40;;;;;;491687;240;1015;-71
2020/12/16 00:15:13;;;;;;;;;;;20.50;39.90;;;;;;491607;240;1062;-72
2020/12/16 00:17:14;;;;;;;;;;;20.50;40.30;;;;;;491581;240;1063;-72
2020/12/16 00:19:15;;;;;;;;;;;20.40;40.60;;;;;;491655;240;943;-71
2020/12/16 00:21:17;;;;;;;;;;;20.40;40.60;;;;;;491596;240;1189;-71
2020/12/16 00:23:18;;;;;;;;;;;20.40;40.70;;;;;;491736;240;1102;-71
2020/12/16 00:25:19;;;;;;;;;;;20.50;40.80;;;;;;491551;240;930;-72
2020/12/16 00:27:20;;;;;;;;;;;20.40;40.70;;;;;;491548;240;1131;-71
2020/12/16 00:29:22;;;;;;;;;;;20.50;40.60;;;;;;491624;240;2180;-71
2020/12/16 00:31:23;;;;;;;;;;;20.50;40.50;;;;;;491516;240;1277;-71
2020/12/16 00:33:24;;;;;;;;;;;20.40;40.50;;;;;;491561;240;960;-71
2020/12/16 00:35:29;;;;;;;;;;;20.40;40.40;;;;;;491531;240;966;-71
2020/12/16 00:37:28;;;;;;;;;;;20.40;40.40;;;;;;491527;241;1402;-71
2020/12/16 00:39:29;;;;;;;;;;;20.40;40.30;;;;;;491659;240;1212;-71
2020/12/16 00:41:30;;;;;;;;;;;20.40;40.20;;;;;;491599;240;1097;-71
2020/12/16 00:43:31;;;;;;;;;;;20.40;40.10;;;;;;491698;240;1022;-71
2020/12/16 00:45:33;;;;;;;;;;;20.50;40.10;;;;;;491660;240;1049;-71
2020/12/16 00:47:34;;;;;;;;;;;20.50;39.90;;;;;;491636;240;971;-71
2020/12/16 00:49:35;;;;;;;;;;;20.50;39.90;;;;;;491601;240;2141;-71
2020/12/16 00:51:36;;;;;;;;;;;20.50;39.80;;;;;;491572;240;1004;-71
2020/12/16 00:53:38;;;;;;;;;;;20.50;39.70;;;;;;491587;238;1333;-71
2020/12/16 00:55:39;;;;;;;;;;;20.50;39.70;;;;;;491597;240;1098;-71
2020/12/16 00:57:41;;;;;;;;;;;20.40;39.70;;;;;;491611;240;1090;-71
2020/12/16 00:59:42;;;;;;;;;;;20.40;39.80;;;;;;491733;240;1017;-71
2020/12/16 01:01:43;;;;;;;;;;;20.40;39.70;;;;;;491625;240;1154;-72
2020/12/16 01:03:44;;;;;;;;;;;20.40;39.60;;;;;;491706;240;1000;-71
2020/12/16 01:05:46;;;;;;;;;;;20.40;39.60;;;;;;491634;240;1067;-71
2020/12/16 01:07:47;;;;;;;;;;;20.50;39.50;;;;;;491683;240;1125;-71
2020/12/16 01:09:48;;;;;;;;;;;20.40;39.50;;;;;;491576;240;2188;-71
2020/12/16 01:11:50;;;;;;;;;;;20.40;39.60;;;;;;491527;240;1087;-71
2020/12/16 01:13:51;;;;;;;;;;;20.40;39.60;;;;;;491614;240;1070;-72
2020/12/16 01:15:52;;;;;;;;;;;20.40;39.70;;;;;;491605;240;953;-71
2020/12/16 01:17:54;;;;;;;;;;;20.40;39.60;;;;;;491566;240;964;-71
2020/12/16 01:19:55;;;;;;;;;;;20.40;39.70;;;;;;491608;240;984;-71
2020/12/16 01:21:56;;;;;;;;;;;20.40;39.60;;;;;;491563;240;956;-71
2020/12/16 01:23:57;;;;;;;;;;;20.40;39.60;;;;;;491599;238;1222;-71
2020/12/16 01:25:59;;;;;;;;;;;20.50;39.60;;;;;;491641;240;1232;-72
2020/12/16 01:28:00;;;;;;;;;;;20.60;39.60;;;;;;491712;240;929;-71
2020/12/16 01:30:01;;;;;;;;;;;20.50;39.60;;;;;;491625;240;2128;-71
2020/12/16 01:32:02;;;;;;;;;;;20.50;39.60;;;;;;491613;240;941;-71
2020/12/16 01:34:04;;;;;;;;;;;20.40;39.70;;;;;;491639;240;952;-71
2020/12/16 01:36:05;;;;;;;;;;;20.40;39.20;;;;;;491635;240;961;-71
2020/12/16 01:38:06;;;;;;;;;;;20.40;39.70;;;;;;491629;240;989;-71
2020/12/16 01:40:08;;;;;;;;;;;20.50;40.00;;;;;;491736;240;1192;-71
2020/12/16 01:42:09;;;;;;;;;;;20.40;39.90;;;;;;491619;240;961;-71
2020/12/16 01:44:10;;;;;;;;;;;20.40;39.80;;;;;;491597;240;968;-72
2020/12/16 01:46:11;;;;;;;;;;;20.40;39.80;;;;;;491543;240;923;-72
2020/12/16 01:48:13;;;;;;;;;;;20.40;39.90;;;;;;491542;240;970;-71
2020/12/16 01:50:14;;;;;;;;;;;20.50;39.80;;;;;;491566;240;2140;-71
2020/12/16 01:52:15;;;;;;;;;;;20.40;39.80;;;;;;491571;240;1053;-71
2020/12/16 01:54:16;;;;;;;;;;;20.40;39.90;;;;;;491644;240;1117;-72
2020/12/16 01:56:18;;;;;;;;;;;20.40;39.90;;;;;;491652;240;1072;-71
2020/12/16 01:58:19;;;;;;;;;;;20.40;39.80;;;;;;491649;240;984;-71
2020/12/16 02:00:21;;;;;;;;;;;20.40;39.90;;;;;;491575;240;998;-72
2020/12/16 02:02:22;;;;;;;;;;;20.30;39.80;;;;;;491643;240;933;-71
2020/12/16 02:04:24;;;;;;;;;;;20.40;39.70;;;;;;491651;240;1032;-72
2020/12/16 02:06:25;;;;;;;;;;;20.40;39.60;;;;;;491680;240;1354;-71
2020/12/16 02:08:26;;;;;;;;;;;20.40;39.90;;;;;;491650;240;960;-72
2020/12/16 02:10:27;;;;;;;;;;;20.40;39.70;;;;;;491608;240;2140;-71
2020/12/16 02:12:28;;;;;;;;;;;20.30;39.60;;;;;;491598;240;1091;-71
2020/12/16 02:14:30;;;;;;;;;;;20.40;39.60;;;;;;491651;240;1044;-71
2020/12/16 02:16:31;;;;;;;;;;;20.30;39.70;;;;;;491610;240;1032;-71
2020/12/16 02:18:33;;;;;;;;;;;20.30;39.70;;;;;;491744;240;1009;-71
2020/12/16 02:20:34;;;;;;;;;;;20.30;39.70;;;;;;491569;240;957;-71
2020/12/16 02:22:36;;;;;;;;;;;20.30;39.70;;;;;;491618;240;1063;-71
2020/12/16 02:24:37;;;;;;;;;;;20.30;39.70;;;;;;491710;240;1175;-71
2020/12/16 02:26:38;;;;;;;;;;;20.20;39.60;;;;;;491732;240;1173;-71
2020/12/16 02:28:39;;;;;;;;;;;20.20;39.60;;;;;;491770;240;1286;-71
2020/12/16 02:30:40;;;;;;;;;;;20.20;39.70;;;;;;491674;240;2145;-71
2020/12/16 02:32:42;;;;;;;;;;;20.30;39.70;;;;;;491629;240;1132;-71
2020/12/16 02:34:43;;;;;;;;;;;20.30;39.70;;;;;;491636;240;974;-71
2020/12/16 02:36:44;;;;;;;;;;;20.20;39.80;;;;;;491649;240;993;-71
2020/12/16 02:38:46;;;;;;;;;;;20.20;39.80;;;;;;491601;240;1091;-72
2020/12/16 02:40:54;;;;;;;;;;;20.20;39.80;;;;;;491719;240;1409;-71
2020/12/16 02:42:55;;;;;;;;;;;20.20;39.90;;;;;;491619;240;980;-72
2020/12/16 02:44:57;;;;;;;;;;;20.20;40.00;;;;;;491642;240;1340;-71
2020/12/16 02:46:58;;;;;;;;;;;20.20;40.00;;;;;;491582;240;930;-71
2020/12/16 02:48:59;;;;;;;;;;;20.30;40.00;;;;;;491647;240;1038;-71
2020/12/16 02:51:01;;;;;;;;;;;20.30;39.20;;;;;;491628;240;2176;-71
2020/12/16 02:53:02;;;;;;;;;;;20.30;39.80;;;;;;491592;240;955;-71
2020/12/16 02:55:03;;;;;;;;;;;20.30;40.10;;;;;;491578;240;1225;-72
2020/12/16 02:57:04;;;;;;;;;;;20.30;40.00;;;;;;491570;240;1037;-71
2020/12/16 02:59:06;;;;;;;;;;;20.20;40.20;;;;;;491702;240;1088;-72
2020/12/16 03:01:07;;;;;;;;;;;20.20;40.20;;;;;;491658;240;1075;-71
2020/12/16 03:03:08;;;;;;;;;;;20.30;40.20;;;;;;491619;240;970;-71
2020/12/16 03:05:09;;;;;;;;;;;20.20;40.20;;;;;;491579;240;1251;-72
2020/12/16 03:07:11;;;;;;;;;;;20.20;40.40;;;;;;491557;240;1182;-71
2020/12/16 03:09:12;;;;;;;;;;;20.20;40.50;;;;;;491692;240;982;-71
2020/12/16 03:11:13;;;;;;;;;;;20.20;40.40;;;;;;491504;240;2196;-71
2020/12/16 03:13:14;;;;;;;;;;;20.10;40.40;;;;;;491587;240;1075;-72
2020/12/16 03:15:16;;;;;;;;;;;20.10;40.40;;;;;;491604;240;1041;-71
2020/12/16 03:17:17;;;;;;;;;;;20.10;40.50;;;;;;491664;240;1063;-71
2020/12/16 03:19:18;;;;;;;;;;;20.10;40.50;;;;;;491614;240;971;-71
2020/12/16 03:21:20;;;;;;;;;;;20.10;40.20;;;;;;491612;240;1176;-71
2020/12/16 03:23:21;;;;;;;;;;;20.10;39.70;;;;;;491640;240;1154;-71
2020/12/16 03:25:22;;;;;;;;;;;20.10;40.70;;;;;;491591;240;1134;-71
2020/12/16 03:27:23;;;;;;;;;;;19.90;40.80;;;;;;491653;240;1171;-71
2020/12/16 03:29:25;;;;;;;;;;;20.00;40.70;;;;;;491650;240;1098;-71
2020/12/16 03:31:26;;;;;;;;;;;20.00;40.70;;;;;;491643;240;2192;-71
2020/12/16 03:33:27;;;;;;;;;;;20.00;40.70;;;;;;491618;240;1297;-71
2020/12/16 03:35:29;;;;;;;;;;;20.00;40.70;;;;;;491643;240;1127;-71
2020/12/16 03:37:30;;;;;;;;;;;20.00;40.70;;;;;;491614;240;991;-71
2020/12/16 03:39:31;;;;;;;;;;;20.00;40.60;;;;;;491680;240;1198;-71
2020/12/16 03:41:32;;;;;;;;;;;20.00;40.50;;;;;;491565;240;1154;-71
2020/12/16 03:43:34;;;;;;;;;;;20.00;40.40;;;;;;491597;240;990;-71
2020/12/16 03:45:35;;;;;;;;;;;20.10;40.40;;;;;;491651;240;1050;-72
2020/12/16 03:47:36;;;;;;;;;;;20.10;40.40;;;;;;491658;240;1181;-72
2020/12/16 03:49:38;;;;;;;;;;;20.10;40.30;;;;;;491589;240;1174;-71
2020/12/16 03:51:39;;;;;;;;;;;20.10;40.50;;;;;;491601;240;2177;-72
2020/12/16 03:53:40;;;;;;;;;;;20.10;40.60;;;;;;491624;240;1072;-71
2020/12/16 03:55:41;;;;;;;;;;;20.10;40.60;;;;;;491570;240;988;-72
2020/12/16 03:57:43;;;;;;;;;;;20.00;40.70;;;;;;491617;240;1185;-71
2020/12/16 03:59:44;;;;;;;;;;;20.00;40.70;;;;;;491639;240;958;-72
2020/12/16 04:01:45;;;;;;;;;;;20.00;40.70;;;;;;491625;240;1232;-72
2020/12/16 04:03:47;;;;;;;;;;;20.00;40.70;;;;;;491611;240;1189;-71
2020/12/16 04:05:48;;;;;;;;;;;20.00;40.80;;;;;;491628;240;940;-71
2020/12/16 04:07:49;;;;;;;;;;;19.90;40.80;;;;;;491634;240;960;-71
2020/12/16 04:09:50;;;;;;;;;;;19.90;40.80;;;;;;491611;240;2149;-71
2020/12/16 04:11:52;;;;;;;;;;;19.90;40.80;;;;;;491545;240;1186;-71
2020/12/16 04:13:53;;;;;;;;;;;19.90;40.90;;;;;;491594;240;992;-71
2020/12/16 04:15:54;;;;;;;;;;;20.00;40.70;;;;;;491579;240;956;-71
2020/12/16 04:17:55;;;;;;;;;;;20.00;40.70;;;;;;491560;240;1072;-72
2020/12/16 04:19:57;;;;;;;;;;;19.90;40.70;;;;;;491574;240;1081;-71
2020/12/16 04:21:58;;;;;;;;;;;19.80;40.70;;;;;;491548;240;1162;-71
2020/12/16 04:23:59;;;;;;;;;;;19.80;40.60;;;;;;491570;240;1031;-71
2020/12/16 04:26:01;;;;;;;;;;;19.80;40.80;;;;;;491557;240;955;-71
2020/12/16 04:28:02;;;;;;;;;;;19.80;40.80;;;;;;491662;240;1202;-71
2020/12/16 04:30:03;;;;;;;;;;;19.80;40.60;;;;;;491625;240;2158;-71
2020/12/16 04:32:05;;;;;;;;;;;19.80;40.20;;;;;;491621;240;1208;-71
2020/12/16 04:34:06;;;;;;;;;;;19.80;40.40;;;;;;491650;240;1066;-71
2020/12/16 04:36:07;;;;;;;;;;;19.70;40.70;;;;;;491558;240;973;-71
2020/12/16 04:38:08;;;;;;;;;;;19.80;40.20;;;;;;491600;240;964;-71
2020/12/16 04:40:10;;;;;;;;;;;19.80;40.30;;;;;;491553;240;1051;-71
2020/12/16 04:42:11;;;;;;;;;;;19.90;40.30;;;;;;491618;240;1142;-72
2020/12/16 04:44:12;;;;;;;;;;;19.90;40.30;;;;;;491679;240;961;-71
2020/12/16 04:46:14;;;;;;;;;;;19.80;40.20;;;;;;491580;240;982;-71
2020/12/16 04:48:15;;;;;;;;;;;19.80;40.30;;;;;;491534;240;983;-71
2020/12/16 04:50:17;;;;;;;;;;;19.80;40.30;;;;;;491543;240;2151;-71
2020/12/16 04:52:18;;;;;;;;;;;19.80;40.20;;;;;;491558;240;990;-71
2020/12/16 04:54:19;;;;;;;;;;;19.80;40.30;;;;;;491595;240;1115;-71
2020/12/16 04:56:20;;;;;;;;;;;19.70;40.30;;;;;;491638;240;1249;-72
2020/12/16 04:58:22;;;;;;;;;;;19.80;40.40;;;;;;491621;240;1141;-71
2020/12/16 05:00:23;;;;;;;;;;;19.90;40.40;;;;;;491616;240;943;-71
2020/12/16 05:02:24;;;;;;;;;;;19.80;40.40;;;;;;491592;240;1087;-72
2020/12/16 05:04:26;;;;;;;;;;;19.80;40.50;;;;;;491670;240;1030;-71
2020/12/16 05:06:27;;;;;;;;;;;19.70;40.70;;;;;;491603;240;1195;-71
2020/12/16 05:08:29;;;;;;;;;;;19.70;40.70;;;;;;491605;240;987;-71
2020/12/16 05:10:30;;;;;;;;;;;19.70;40.30;;;;;;491575;240;2172;-71
2020/12/16 05:12:31;;;;;;;;;;;19.70;40.50;;;;;;491515;240;1147;-71
2020/12/16 05:14:32;;;;;;;;;;;19.60;40.90;;;;;;491519;240;953;-71
2020/12/16 05:16:34;;;;;;;;;;;19.70;40.80;;;;;;491537;240;1195;-71
2020/12/16 05:18:35;;;;;;;;;;;19.70;40.80;;;;;;491489;240;1081;-71
2020/12/16 05:20:36;;;;;;;;;;;19.70;40.80;;;;;;491483;240;1027;-71
2020/12/16 05:22:37;;;;;;;;;;;19.60;40.90;;;;;;491474;240;1265;-71
2020/12/16 05:24:39;;;;;;;;;;;19.70;40.90;;;;;;491469;240;972;-71
2020/12/16 05:26:40;;;;;;;;;;;19.60;40.80;;;;;;491490;240;1225;-72
2020/12/16 05:28:41;;;;;;;;;;;19.60;41.00;;;;;;491591;240;1168;-71
2020/12/16 05:30:43;;;;;;;;;;;19.60;41.10;;;;;;491477;240;2196;-71
2020/12/16 05:32:44;;;;;;;;;;;19.60;41.00;;;;;;491469;240;1324;-71
2020/12/16 05:34:45;;;;;;;;;;;19.70;41.10;;;;;;491400;240;1008;-71
2020/12/16 05:36:46;;;;;;;;;;;19.60;41.00;;;;;;491509;240;1143;-71
2020/12/16 05:38:48;;;;;;;;;;;19.70;41.00;;;;;;491501;240;1063;-71
2020/12/16 05:40:49;;;;;;;;;;;19.60;41.00;;;;;;491461;240;1103;-71
2020/12/16 05:42:50;;;;;;;;;;;19.70;41.10;;;;;;491502;240;1273;-71
2020/12/16 05:44:51;;;;;;;;;;;19.60;41.00;;;;;;491524;240;1098;-71
2020/12/16 05:46:53;;;;;;;;;;;19.70;41.10;;;;;;491347;240;1089;-71
2020/12/16 05:48:54;;;;;;;;;;;19.70;41.00;;;;;;491425;240;1039;-71
2020/12/16 05:50:56;;;;;;;;;;;19.70;41.00;;;;;;491359;240;2173;-71
2020/12/16 05:52:57;;;;;;;;;;;19.70;41.00;;;;;;491466;240;1513;-71
2020/12/16 05:54:58;;;;;;;;;;;19.60;41.00;;;;;;491449;240;1076;-71
2020/12/16 05:56:59;;;;;;;;;;;19.70;41.10;;;;;;491374;240;1146;-71
2020/12/16 05:59:00;;;;;;;;;;;19.70;41.00;;;;;;491428;240;1209;-71
2020/12/16 06:01:02;;;;;;;;;;;19.70;40.90;;;;;;491467;240;1077;-71
2020/12/16 06:03:03;;;;;;;;;;;19.70;41.00;;;;;;491352;240;1183;-71
2020/12/16 06:05:04;;;;;;;;;;;19.70;41.00;;;;;;491368;240;1152;-71
2020/12/16 06:07:06;;;;;;;;;;;19.60;41.00;;;;;;491432;240;1090;-71
2020/12/16 06:09:07;;;;;;;;;;;19.60;41.10;;;;;;491424;240;1073;-71
2020/12/16 06:11:09;;;;;;;;;;;19.60;41.00;;;;;;491261;240;2195;-71
2020/12/16 06:13:12;;;;;;;;;;;19.70;41.00;;;;;;491385;240;1125;-71
2020/12/16 06:15:11;;;;;;;;;;;19.70;40.80;;;;;;491324;241;1506;-71
2020/12/16 06:17:13;;;;;;;;;;;19.60;40.40;;;;;;491211;240;1070;-70
2020/12/16 06:19:14;;;;;;;;;;;19.60;40.50;;;;;;491253;240;1178;-70
2020/12/16 06:21:15;;;;;;;;;;;19.60;40.70;;;;;;491238;240;1214;-71
2020/12/16 06:23:16;;;;;;;;;;;19.70;40.80;;;;;;491332;240;1111;-71
2020/12/16 06:25:18;;;;;;;;;;;19.70;40.80;;;;;;491249;240;1196;-71
2020/12/16 06:27:19;;;;;;;;;;;19.70;40.80;;;;;;491242;240;1117;-71
2020/12/16 06:29:20;;;;;;;;;;;19.70;40.70;;;;;;491279;240;1090;-71
2020/12/16 06:31:22;;;;;;;;;;;19.70;40.70;;;;;;491247;240;2183;-71
2020/12/16 06:33:23;;;;;;;;;;;19.60;40.70;;;;;;491352;240;1007;-71
2020/12/16 06:35:24;;;;;;;;;;;19.60;40.80;;;;;;491254;240;1062;-71
2020/12/16 06:37:26;;;;;;;;;;;19.60;40.70;;;;;;491267;240;1218;-71
2020/12/16 06:39:28;;;;;;;;;;;19.60;40.70;;;;;;491301;240;1007;-71
2020/12/16 06:41:29;;;;;;;;;;;19.50;40.80;;;;;;491332;240;1374;-71
2020/12/16 06:43:30;;;;;;;;;;;19.50;40.90;;;;;;491247;240;1068;-71
2020/12/16 06:45:32;;;;;;;;;;;19.50;40.90;;;;;;491175;240;1154;-71
2020/12/16 06:47:33;;;;;;;;;;;19.60;40.80;;;;;;491224;240;1151;-71
2020/12/16 06:49:34;;;;;;;;;;;19.60;40.80;;;;;;491301;240;1008;-71
2020/12/16 06:51:36;;;;;;;;;;;19.60;40.70;;;;;;491164;240;2201;-70
2020/12/16 06:53:37;;;;;;;;;;;19.60;40.70;;;;;;491240;240;1212;-71
2020/12/16 06:55:39;;;;;;;;;;;19.60;40.60;;;;;;491232;240;1048;-71
2020/12/16 06:57:42;;;;;;;;;;;19.60;40.50;;;;;;491305;240;994;-71
2020/12/16 06:59:43;;;;;;;;;;;19.60;40.50;;;;;;491236;240;1191;-71
2020/12/16 07:01:44;;;;;;;;;;;19.60;40.50;;;;;;491280;240;978;-71
2020/12/16 07:03:45;;;;;;;;;;;19.60;40.30;;;;;;491326;240;1065;-71
2020/12/16 07:05:47;;;;;;;;;;;19.60;40.40;;;;;;491271;240;1054;-71
2020/12/16 07:07:48;;;;;;;;;;;19.60;40.40;;;;;;491047;240;1059;-71
2020/12/16 07:09:50;;;;;;;;;;;19.60;40.40;;;;;;491110;240;1162;-71
2020/12/16 07:11:51;;;;;;;;;;;19.60;40.50;;;;;;491109;240;2136;-71
2020/12/16 07:13:52;;;;;;;;;;;19.60;40.50;;;;;;491122;240;1109;-71
2020/12/16 07:15:53;;;;;;;;;;;19.60;40.60;;;;;;491076;240;1185;-71
2020/12/16 07:17:55;;;;;;;;;;;19.50;40.60;;;;;;491221;240;1139;-71
2020/12/16 07:19:56;;;;;;;;;;;19.60;40.70;;;;;;491167;240;1216;-70
2020/12/16 07:21:57;;;;;;;;;;;19.60;40.70;;;;;;491194;240;1122;-71
2020/12/16 07:23:58;;;;;;;;;;;19.60;40.60;;;;;;491218;240;1102;-71
2020/12/16 07:26:00;;;;;;;;;;;19.60;40.60;;;;;;491185;240;1287;-71
2020/12/16 07:28:01;;;;;;;;;;;19.60;40.70;;;;;;491092;240;1144;-71
2020/12/16 07:30:02;;;;;;;;;;;19.60;40.80;;;;;;491031;240;1103;-70
2020/12/16 07:32:03;;;;;;;;;;;19.70;40.60;;;;;;491174;240;2136;-70
2020/12/16 07:34:05;;;;;;;;;;;19.70;40.40;;;;;;491202;240;1025;-70
2020/12/16 07:36:06;;;;;;;;;;;19.80;40.60;;;;;;491197;240;984;-70
2020/12/16 07:38:08;;;;;;;;;;;19.80;40.50;;;;;;491015;240;1067;-70
2020/12/16 07:40:10;;;;;;;;;;;19.80;39.70;;;;;;491069;240;1125;-70
2020/12/16 07:42:12;;;;;;;;;;;19.80;40.30;;;;;;491083;240;1083;-70
2020/12/16 07:44:13;;;;;;;;;;;19.80;40.60;;;;;;491106;240;1163;-70
2020/12/16 07:46:14;;;;;;;;;;;19.80;40.40;;;;;;491107;240;1107;-70
2020/12/16 07:48:16;;;;;;;;;;;19.80;40.50;;;;;;491103;240;1062;-70
2020/12/16 07:50:17;;;;;;;;;;;19.70;40.60;;;;;;491152;240;1012;-70
2020/12/16 07:52:18;;;;;;;;;;;19.70;40.70;;;;;;491090;240;2416;-70
2020/12/16 07:54:20;;;;;;;;;;;19.70;40.80;;;;;;490949;240;1027;-70
2020/12/16 07:56:21;;;;;;;;;;;19.80;40.70;;;;;;490989;240;1061;-70
2020/12/16 07:58:22;;;;;;;;;;;19.70;40.80;;;;;;490991;240;1065;-70
2020/12/16 08:00:24;;;;;;;;;;;19.70;40.80;;;;;;491026;240;1165;-70
2020/12/16 08:02:25;;;;;;;;;;;19.80;40.70;;;;;;490970;240;1070;-70
2020/12/16 08:04:26;;;;;;;;;;;19.80;40.50;;;;;;491044;240;1061;-70
2020/12/16 08:06:27;;;;;;;;;;;19.80;40.50;;;;;;491058;240;1076;-70
2020/12/16 08:08:29;;;;;;;;;;;19.80;40.60;;;;;;491010;240;1131;-70
2020/12/16 08:10:30;;;;;;;;;;;19.70;40.60;;;;;;490966;240;1104;-70
2020/12/16 08:12:31;;;;;;;;;;;19.70;40.80;;;;;;491130;240;2352;-70
2020/12/16 08:14:32;;;;;;;;;;;19.60;40.80;;;;;;490973;240;1176;-70
2020/12/16 08:16:34;;;;;;;;;;;19.70;40.90;;;;;;490878;240;1053;-70
2020/12/16 08:18:38;;;;;;;;;;;19.60;40.90;;;;;;490864;240;1066;-70
2020/12/16 08:20:40;;;;;;;;;;;19.60;40.90;;;;;;490868;240;1286;-70
2020/12/16 08:22:40;;;;;;;;;;;19.60;40.90;;;;;;490928;242;1354;-70
2020/12/16 08:24:41;;;;;;;;;;;19.60;41.00;;;;;;490913;240;1048;-70
2020/12/16 08:26:42;;;;;;;;;;;19.60;41.00;;;;;;490904;240;1212;-70
2020/12/16 08:28:44;;;;;;;;;;;19.60;41.00;;;;;;490969;240;1014;-70
2020/12/16 08:30:45;;;;;;;;;;;19.60;41.00;;;;;;490997;240;1177;-70
2020/12/16 08:32:47;;;;;;;;;;;19.60;41.00;;;;;;490885;240;2189;-70
2020/12/16 08:34:48;;;;;;;;;;;19.60;41.00;;;;;;490920;240;1048;-70
2020/12/16 08:36:49;;;;;;;;;;;19.60;41.00;;;;;;490874;240;1086;-70
2020/12/16 08:38:50;;;;;;;;;;;19.60;41.00;;;;;;490859;240;1234;-70
2020/12/16 08:40:52;;;;;;;;;;;19.60;41.10;;;;;;490935;240;1065;-70
2020/12/16 08:42:53;;;;;;;;;;;19.60;41.10;;;;;;490961;240;1044;-70
2020/12/16 08:44:54;;;;;;;;;;;19.60;40.60;;;;;;490985;240;1164;-70
2020/12/16 08:46:56;;;;;;;;;;;19.60;40.30;;;;;;491009;240;1057;-71
2020/12/16 08:48:57;;;;;;;;;;;19.50;40.80;;;;;;491030;240;1188;-70
2020/12/16 08:50:59;;;;;;;;;;;19.50;40.80;;;;;;491036;240;1046;-70
2020/12/16 08:53:00;;;;;;;;;;;19.50;40.70;;;;;;491107;240;2188;-71
2020/12/16 08:55:01;;;;;;;;;;;19.50;40.70;;;;;;491022;240;1062;-70
2020/12/16 08:57:02;;;;;;;;;;;19.50;40.70;;;;;;491033;240;1108;-70
2020/12/16 08:59:04;;;;;;;;;;;19.50;40.60;;;;;;491043;240;1026;-70
2020/12/16 09:01:07;;;;;;;;;;;19.50;40.40;;;;;;491085;240;1774;-70
2020/12/16 09:03:06;;;;;;;;;;;19.50;40.40;;;;;;490927;242;1364;-70
2020/12/16 09:05:08;;;;;;;;;;;19.50;40.30;;;;;;490928;240;1016;-70
2020/12/16 09:07:09;;;;;;;;;;;19.50;40.20;;;;;;490952;240;1209;-70
2020/12/16 09:09:10;;;;;;;;;;;19.50;40.10;;;;;;490846;240;1033;-70
2020/12/16 09:11:11;;;;;;;;;;;19.40;40.20;;;;;;490945;240;983;-70
2020/12/16 09:13:13;;;;;;;;;;;19.40;40.30;;;;;;490941;240;2128;-70
2020/12/16 09:15:14;;;;;;;;;;;19.40;40.30;;;;;;491008;240;1116;-70
2020/12/16 09:17:16;;;;;;;;;;;19.40;40.40;;;;;;490937;240;1160;-70
2020/12/16 09:19:17;;;;;;;;;;;19.40;40.40;;;;;;490855;240;1032;-70
2020/12/16 09:21:18;;;;;;;;;;;19.40;40.40;;;;;;490947;240;1298;-70
2020/12/16 09:23:20;;;;;;;;;;;19.40;40.40;;;;;;491043;240;1045;-70
2020/12/16 09:25:21;;;;;;;;;;;19.40;40.40;;;;;;490917;240;1235;-70
2020/12/16 09:27:22;;;;;;;;;;;19.40;40.50;;;;;;490874;240;1066;-70
2020/12/16 09:29:23;;;;;;;;;;;19.30;40.70;;;;;;490929;240;1063;-70
2020/12/16 09:31:25;;;;;;;;;;;19.40;40.70;;;;;;490942;240;1175;-70
2020/12/16 09:33:26;;;;;;;;;;;19.40;40.70;;;;;;490849;240;2196;-70
2020/12/16 09:35:27;;;;;;;;;;;19.40;40.80;;;;;;490821;240;1063;-70
2020/12/16 09:37:28;;;;;;;;;;;19.40;40.90;;;;;;490968;240;1015;-70
2020/12/16 09:39:30;;;;;;;;;;;19.40;40.90;;;;;;491021;240;1130;-71
2020/12/16 09:41:31;;;;;;;;;;;19.40;41.00;;;;;;490766;240;1109;-71
2020/12/16 09:43:32;;;;;;;;;;;19.40;41.00;;;;;;491049;240;1029;-71
2020/12/16 09:45:34;;;;;;;;;;;19.40;41.00;;;;;;491006;238;1352;-71
2020/12/16 09:47:35;;;;;;;;;;;19.40;41.10;;;;;;490969;240;1067;-71
2020/12/16 09:49:36;;;;;;;;;;;19.40;41.10;;;;;;491016;240;1018;-70
2020/12/16 09:51:37;;;;;;;;;;;19.40;41.10;;;;;;491054;240;1083;-71
2020/12/16 09:53:39;;;;;;;;;;;19.40;41.20;;;;;;490881;240;2101;-71
2020/12/16 09:55:40;;;;;;;;;;;19.40;41.10;;;;;;490890;240;1099;-70
2020/12/16 09:57:41;;;;;;;;;;;19.40;41.10;;;;;;490940;240;1132;-70
2020/12/16 09:59:43;;;;;;;;;;;19.40;41.10;;;;;;490964;240;992;-70
2020/12/16 10:01:44;;;;;;;;;;;19.40;41.20;;;;;;490961;240;1431;-70
2020/12/16 10:03:45;;;;;;;;;;;19.40;41.30;;;;;;491078;240;1057;-70
2020/12/16 10:05:46;;;;;;;;;;;19.40;41.40;;;;;;491081;240;1077;-70
2020/12/16 10:07:48;;;;;;;;;;;19.40;41.00;;;;;;490884;240;1203;-70
2020/12/16 10:09:55;;;;;;;;;;;19.40;41.30;;;;;;490752;240;1103;-70
2020/12/16 10:11:56;;;;;;;;;;;19.30;41.40;;;;;;490827;240;2148;-70
2020/12/16 10:13:58;;;;;;;;;;;19.30;41.40;;;;;;490982;240;1105;-70
2020/12/16 10:15:59;;;;;;;;;;;19.40;41.40;;;;;;490922;240;1509;-70
2020/12/16 10:18:00;;;;;;;;;;;19.40;41.30;;;;;;491022;240;1139;-70
2020/12/16 10:20:02;;;;;;;;;;;19.40;41.30;;;;;;490957;240;1121;-70
2020/12/16 10:22:03;;;;;;;;;;;19.40;41.10;;;;;;490931;240;1346;-70
2020/12/16 10:24:04;;;;;;;;;;;19.50;41.10;;;;;;490962;240;1040;-70
2020/12/16 10:26:05;;;;;;;;;;;19.50;41.00;;;;;;490949;240;1056;-70
2020/12/16 10:28:10;;;;;;;;;;;19.60;41.00;;;;;;490711;240;1042;-71
2020/12/16 10:30:08;;;;;;;;;;;19.60;40.90;;;;;;490690;241;1420;-70
2020/12/16 10:32:09;;;;;;;;;;;19.60;40.90;;;;;;490730;240;2164;-70
2020/12/16 10:34:10;;;;;;;;;;;19.70;40.70;;;;;;490799;240;981;-70
2020/12/16 10:36:12;;;;;;;;;;;19.70;40.70;;;;;;490781;240;1091;-70
2020/12/16 10:38:13;;;;;;;;;;;19.70;40.70;;;;;;490864;240;1025;-71
2020/12/16 10:40:14;;;;;;;;;;;19.60;40.80;;;;;;490896;240;1198;-70
2020/12/16 10:42:16;;;;;;;;;;;19.60;40.90;;;;;;490847;240;1105;-70
2020/12/16 10:44:17;;;;;;;;;;;19.60;41.10;;;;;;490872;240;1217;-70
2020/12/16 10:46:18;;;;;;;;;;;19.60;41.00;;;;;;490796;240;1289;-70
2020/12/16 10:48:20;;;;;;;;;;;19.70;40.80;;;;;;491481;240;1083;-70
2020/12/16 10:50:21;;;;;;;;;;;19.70;40.90;;;;;;490761;240;1026;-70
2020/12/16 10:52:22;;;;;;;;;;;19.60;40.90;;;;;;490782;240;2137;-70
2020/12/16 10:54:24;;;;;;;;;;;19.60;41.10;;;;;;490848;240;1262;-70
2020/12/16 10:56:25;;;;;;;;;;;19.60;41.00;;;;;;490894;240;1151;-70
2020/12/16 10:58:26;;;;;;;;;;;19.70;41.00;;;;;;490743;240;1116;-70
2020/12/16 11:00:28;;;;;;;;;;;19.60;41.00;;;;;;490726;240;1066;-70
2020/12/16 11:02:29;;;;;;;;;;;19.70;41.00;;;;;;490860;240;1177;-70
2020/12/16 11:04:31;;;;;;;;;;;19.70;41.00;;;;;;490877;240;1131;-70
2020/12/16 11:06:32;;;;;;;;;;;19.70;40.90;;;;;;490853;240;1243;-71
2020/12/16 11:08:33;;;;;;;;;;;19.80;40.80;;;;;;490785;240;1165;-70
2020/12/16 11:10:34;;;;;;;;;;;19.70;40.80;;;;;;490878;240;1142;-70
2020/12/16 11:12:35;;;;;;;;;;;19.70;40.80;;;;;;491002;240;2188;-70
2020/12/16 11:14:37;;;;;;;;;;;19.70;40.80;;;;;;490776;240;1023;-70
2020/12/16 11:16:38;;;;;;;;;;;19.70;40.80;;;;;;490818;240;1152;-70
2020/12/16 11:18:39;;;;;;;;;;;19.70;41.00;;;;;;490943;240;1410;-70
2020/12/16 11:20:41;;;;;;;;;;;19.70;40.90;;;;;;490931;240;1031;-70
2020/12/16 11:22:42;;;;;;;;;;;19.80;40.90;;;;;;490847;240;1210;-70
2020/12/16 11:24:43;;;;;;;;;;;19.80;40.70;;;;;;491004;240;1075;-70
2020/12/16 11:26:46;;;;;;;;;;;19.70;40.40;;;;;;490937;240;1074;-70
2020/12/16 11:28:46;;;;;;;;;;;19.80;40.80;;;;;;490947;241;1354;-70
2020/12/16 11:30:47;;;;;;;;;;;19.80;40.80;;;;;;490980;240;967;-70
2020/12/16 11:32:49;;;;;;;;;;;19.80;41.10;;;;;;490867;240;2195;-70
2020/12/16 11:34:50;;;;;;;;;;;19.80;41.00;;;;;;490942;240;1147;-70
2020/12/16 11:36:51;;;;;;;;;;;19.80;41.00;;;;;;490764;240;991;-70
2020/12/16 11:38:52;;;;;;;;;;;19.80;41.00;;;;;;490724;240;1148;-70
2020/12/16 11:40:54;;;;;;;;;;;19.80;41.00;;;;;;490777;240;1095;-70
2020/12/16 11:42:55;;;;;;;;;;;19.80;40.90;;;;;;490998;240;1038;-70
2020/12/16 11:44:56;;;;;;;;;;;19.80;41.10;;;;;;491032;240;1055;-70
2020/12/16 11:46:58;;;;;;;;;;;19.70;41.10;;;;;;490945;240;1119;-70
2020/12/16 11:48:59;;;;;;;;;;;19.70;41.10;;;;;;490815;240;1014;-70
2020/12/16 11:51:01;;;;;;;;;;;19.70;41.10;;;;;;490649;240;1042;-70
2020/12/16 11:53:02;;;;;;;;;;;19.80;40.90;;;;;;491004;240;2199;-70
2020/12/16 11:55:04;;;;;;;;;;;19.80;41.00;;;;;;490852;240;1065;-70
2020/12/16 11:57:05;;;;;;;;;;;19.80;40.90;;;;;;490922;240;1063;-70